Time;durP1;ratioP1;P1;durP2;ratioP2;P2;SDS_P1;SDS_P2;PMS_P1;PMS_P2;Temp;Humidity;BMP_temperature;BMP_pressure;BME280_temperature;BME280_humidity;BME280_pressure;Samples;Min_cycle;Max_cycle;Signal;HPM_P1;HPM_P2
2023/06/19 00:01:44;;;;;;;7.28;5.43;;;24.10;67.70;;;;;;4993345;28;20128;-72
2023/06/19 00:04:10;;;;;;;7.10;6.05;;;24.10;68.00;;;;;;4967069;28;20485;-72
2023/06/19 00:06:36;;;;;;;7.97;6.00;;;24.10;68.00;;;;;;4990136;28;20031;-72
2023/06/19 00:09:02;;;;;;;6.90;6.20;;;24.10;67.70;;;;;;4994053;28;20444;-72
2023/06/19 00:11:28;;;;;;;8.05;5.40;;;24.10;68.10;;;;;;4971660;28;20034;-72
2023/06/19 00:13:54;;;;;;;7.65;5.65;;;24.10;68.60;;;;;;4987170;28;20041;-72
2023/06/19 00:16:19;;;;;;;9.63;5.78;;;24.00;69.10;;;;;;4982501;28;20516;-71
2023/06/19 00:18:46;;;;;;;6.43;5.05;;;24.00;69.90;;;;;;4977071;28;20033;-72
2023/06/19 00:21:12;;;;;;;8.40;5.88;;;24.00;69.60;;;;;;4991820;28;20030;-72
2023/06/19 00:23:37;;;;;;;8.02;6.10;;;24.00;69.60;;;;;;4991780;28;20050;-72
2023/06/19 00:26:03;;;;;;;7.97;6.00;;;24.00;70.20;;;;;;4992604;28;20053;-72
2023/06/19 00:28:32;;;;;;;6.88;5.85;;;24.00;69.80;;;;;;4990563;28;20030;-72
2023/06/19 00:30:57;;;;;;;8.32;5.57;;;23.90;69.70;;;;;;4989961;28;20533;-72
2023/06/19 00:33:23;;;;;;;6.82;6.13;;;23.90;70.00;;;;;;4972110;28;20034;-72
2023/06/19 00:35:52;;;;;;;6.57;5.80;;;23.80;70.20;;;;;;4989088;28;20034;-72
2023/06/19 00:38:18;;;;;;;7.20;5.60;;;23.80;70.00;;;;;;4994537;28;20551;-72
2023/06/19 00:40:43;;;;;;;6.80;6.10;;;23.80;69.80;;;;;;4993750;28;20470;-72
2023/06/19 00:43:09;;;;;;;7.93;6.43;;;23.70;70.00;;;;;;4989889;28;20054;-72
2023/06/19 00:45:36;;;;;;;7.32;5.95;;;23.70;70.30;;;;;;4994627;28;20034;-72
2023/06/19 00:48:03;;;;;;;6.18;5.57;;;23.60;70.30;;;;;;4989745;28;20034;-72
2023/06/19 00:50:30;;;;;;;8.80;6.20;;;23.60;70.40;;;;;;4990025;28;20033;-72
2023/06/19 00:52:57;;;;;;;6.55;5.63;;;23.60;70.50;;;;;;4988643;28;20014;-72
2023/06/19 00:55:24;;;;;;;6.45;5.78;;;23.50;70.70;;;;;;4988346;28;20160;-72
2023/06/19 00:57:52;;;;;;;6.70;5.75;;;23.50;70.80;;;;;;4991227;28;20022;-72
2023/06/19 01:00:18;;;;;;;8.02;6.10;;;23.40;71.00;;;;;;4991550;28;20026;-74
2023/06/19 01:02:43;;;;;;;6.97;6.28;;;23.40;71.10;;;;;;4992198;28;20695;-75
2023/06/19 01:05:09;;;;;;;8.55;6.07;;;23.40;71.30;;;;;;4993853;28;20504;-74
2023/06/19 01:07:47;;;;;;;8.45;6.28;;;23.40;71.20;;;;;;4989765;28;20027;-72
2023/06/19 01:10:18;;;;;;;6.88;6.00;;;23.40;71.70;;;;;;4985777;28;20033;-72
2023/06/19 01:12:56;;;;;;;9.68;6.88;;;23.40;71.80;;;;;;4972655;28;20030;-72
2023/06/19 01:15:23;;;;;;;9.02;6.45;;;23.30;71.60;;;;;;4991544;28;20033;-73
2023/06/19 01:17:49;;;;;;;8.50;6.43;;;23.30;72.30;;;;;;4990136;28;20033;-74
2023/06/19 01:20:15;;;;;;;9.43;6.63;;;23.30;71.60;;;;;;4992058;28;20022;-72
2023/06/19 01:22:43;;;;;;;7.03;6.32;;;23.30;71.80;;;;;;4988044;28;20385;-72
2023/06/19 01:25:09;;;;;;;7.68;6.43;;;23.20;71.90;;;;;;4982605;28;20101;-72
2023/06/19 01:27:37;;;;;;;7.30;6.50;;;23.20;72.20;;;;;;4988150;28;20057;-74
2023/06/19 01:30:04;;;;;;;8.75;6.75;;;23.20;73.00;;;;;;4969693;28;20589;-74
2023/06/19 01:32:33;;;;;;;9.98;6.82;;;23.20;72.30;;;;;;4967895;28;20035;-74
2023/06/19 01:35:01;;;;;;;8.65;6.38;;;23.20;72.20;;;;;;4985010;28;20026;-74
2023/06/19 01:37:28;;;;;;;7.28;6.55;;;23.20;72.20;;;;;;4987766;28;20121;-74
2023/06/19 01:39:57;;;;;;;6.78;5.85;;;23.20;72.20;;;;;;4986545;28;20481;-73
2023/06/19 01:42:23;;;;;;;7.10;5.90;;;23.20;72.20;;;;;;4998731;23;21050;-74
2023/06/19 01:44:50;;;;;;;7.57;6.30;;;23.10;72.50;;;;;;4986702;28;20053;-74
2023/06/19 01:47:19;;;;;;;7.75;5.90;;;23.10;72.80;;;;;;5002446;28;20423;-74
2023/06/19 01:49:48;;;;;;;9.27;5.75;;;23.10;72.90;;;;;;4997442;28;22454;-74
2023/06/19 01:52:14;;;;;;;9.30;6.15;;;23.10;72.90;;;;;;5000263;28;20026;-73
2023/06/19 01:54:40;;;;;;;7.90;5.53;;;23.00;73.00;;;;;;4998493;28;20037;-75
2023/06/19 01:57:06;;;;;;;9.15;6.13;;;22.90;73.10;;;;;;5005279;28;20559;-74
2023/06/19 01:59:32;;;;;;;7.20;5.47;;;22.90;73.20;;;;;;5001917;28;20077;-74
2023/06/19 02:01:57;;;;;;;9.60;6.05;;;22.90;73.60;;;;;;5000690;28;20030;-74
2023/06/19 02:04:23;;;;;;;6.97;5.57;;;22.90;73.70;;;;;;5002880;28;20022;-74
2023/06/19 02:06:49;;;;;;;6.88;5.97;;;22.80;73.90;;;;;;5001092;28;20081;-72
2023/06/19 02:09:14;;;;;;;8.02;5.88;;;22.80;73.80;;;;;;4996340;28;20027;-73
2023/06/19 02:11:40;;;;;;;7.35;5.70;;;22.80;73.90;;;;;;4999620;28;20037;-74
2023/06/19 02:14:06;;;;;;;7.43;5.75;;;22.80;74.10;;;;;;5000687;28;20022;-74
2023/06/19 02:16:31;;;;;;;11.30;6.43;;;22.70;74.50;;;;;;4998701;28;20113;-72
2023/06/19 02:18:57;;;;;;;6.90;5.53;;;22.70;74.70;;;;;;4999428;28;20641;-73
2023/06/19 02:21:23;;;;;;;5.97;5.18;;;22.70;75.00;;;;;;4993732;28;20481;-72
2023/06/19 02:23:49;;;;;;;7.53;5.22;;;22.70;75.20;;;;;;4998713;28;20022;-74
2023/06/19 02:26:15;;;;;;;6.80;5.47;;;22.70;76.10;;;;;;5003127;28;20038;-73
2023/06/19 02:28:41;;;;;;;7.22;5.07;;;22.60;75.70;;;;;;5014839;28;20029;-73
2023/06/19 02:31:06;;;;;;;9.40;5.53;;;22.60;76.00;;;;;;5001578;28;20511;-74
2023/06/19 02:33:33;;;;;;;5.65;5.03;;;22.60;76.90;;;;;;4997090;28;20041;-74
2023/06/19 02:35:58;;;;;;;6.18;5.45;;;22.60;76.50;;;;;;5002136;28;20026;-74
2023/06/19 02:38:25;;;;;;;9.57;5.55;;;22.60;76.50;;;;;;5006842;28;20033;-72
2023/06/19 02:40:51;;;;;;;6.82;5.07;;;22.60;76.80;;;;;;4997675;28;20388;-74
2023/06/19 02:43:16;;;;;;;9.25;4.80;;;22.60;76.70;;;;;;4999479;28;20037;-73
2023/06/19 02:45:42;;;;;;;5.65;5.10;;;22.50;76.70;;;;;;5004549;28;20037;-74
2023/06/19 02:48:08;;;;;;;6.68;4.90;;;22.50;76.90;;;;;;5007399;28;20054;-74
2023/06/19 02:50:34;;;;;;;7.18;5.50;;;22.50;77.10;;;;;;5014113;28;20030;-74
2023/06/19 02:52:59;;;;;;;6.22;4.95;;;22.50;77.30;;;;;;5003487;28;20044;-74
2023/06/19 02:55:25;;;;;;;6.53;5.03;;;22.50;77.00;;;;;;5005724;28;20037;-74
2023/06/19 02:57:51;;;;;;;5.57;4.97;;;22.50;77.00;;;;;;5003631;28;20507;-74
2023/06/19 03:00:17;;;;;;;6.35;5.43;;;22.50;77.00;;;;;;5002677;28;20068;-72
2023/06/19 03:02:44;;;;;;;6.35;5.07;;;22.50;77.10;;;;;;5002533;28;20017;-74
2023/06/19 03:05:10;;;;;;;6.40;5.10;;;22.50;77.20;;;;;;5018892;28;20026;-74
2023/06/19 03:07:36;;;;;;;9.32;5.07;;;22.50;77.60;;;;;;5006319;28;20033;-74
2023/06/19 03:10:02;;;;;;;6.57;5.32;;;22.50;77.60;;;;;;5003121;28;20106;-74
2023/06/19 03:12:28;;;;;;;7.68;5.15;;;22.40;77.70;;;;;;5002682;28;20042;-74
2023/06/19 03:14:53;;;;;;;7.95;5.45;;;22.40;77.70;;;;;;5005136;28;20057;-73
2023/06/19 03:17:19;;;;;;;6.32;5.00;;;22.40;77.70;;;;;;5005790;28;20022;-74
2023/06/19 03:19:44;;;;;;;6.88;4.97;;;22.40;77.70;;;;;;5004697;28;20034;-74
2023/06/19 03:22:10;;;;;;;5.78;4.63;;;22.40;77.70;;;;;;5004554;28;20117;-74
2023/06/19 03:24:36;;;;;;;6.25;4.68;;;22.40;77.90;;;;;;5008554;28;20029;-72
2023/06/19 03:27:01;;;;;;;5.03;4.28;;;22.40;78.00;;;;;;5001457;28;20021;-74
2023/06/19 03:29:27;;;;;;;5.82;4.65;;;22.40;78.10;;;;;;5021715;28;20120;-74
2023/06/19 03:31:53;;;;;;;7.13;4.78;;;22.30;78.20;;;;;;5000868;28;20033;-74
2023/06/19 03:34:18;;;;;;;7.00;5.03;;;22.30;78.10;;;;;;5003443;28;20056;-74
2023/06/19 03:36:44;;;;;;;5.32;4.15;;;22.40;78.00;;;;;;5004423;28;20034;-72
2023/06/19 03:39:10;;;;;;;7.55;4.50;;;22.30;77.90;;;;;;5003297;28;20114;-74
2023/06/19 03:41:35;;;;;;;5.28;4.40;;;22.30;77.90;;;;;;5002224;28;20061;-74
2023/06/19 03:44:01;;;;;;;5.07;3.95;;;22.30;77.80;;;;;;4998649;28;20123;-72
2023/06/19 03:46:26;;;;;;;5.43;4.78;;;22.30;77.70;;;;;;5020994;28;20037;-73
2023/06/19 03:48:53;;;;;;;7.30;4.18;;;22.30;77.60;;;;;;5005209;28;20320;-72
2023/06/19 03:51:18;;;;;;;5.35;4.10;;;22.30;77.50;;;;;;5008333;28;20026;-74
2023/06/19 03:53:44;;;;;;;4.32;3.50;;;22.30;77.40;;;;;;5001042;28;20048;-73
2023/06/19 03:56:10;;;;;;;5.20;4.05;;;22.30;77.40;;;;;;4997649;28;20045;-74
2023/06/19 03:58:35;;;;;;;4.72;3.85;;;22.30;77.50;;;;;;5003539;28;20033;-74
2023/06/19 04:01:01;;;;;;;6.85;3.60;;;22.20;77.30;;;;;;5002159;28;20493;-74
2023/06/19 04:03:27;;;;;;;4.72;3.35;;;22.20;77.40;;;;;;5003580;28;20386;-73
2023/06/19 04:05:52;;;;;;;5.28;3.35;;;22.20;77.40;;;;;;5004557;28;20489;-74
2023/06/19 04:08:18;;;;;;;5.82;3.22;;;22.20;77.60;;;;;;5003456;28;20109;-74
2023/06/19 04:10:44;;;;;;;7.03;3.33;;;22.20;77.50;;;;;;5003262;28;20407;-74
2023/06/19 04:13:09;;;;;;;3.97;3.28;;;22.20;77.50;;;;;;4996458;28;20029;-74
2023/06/19 04:15:35;;;;;;;4.88;3.13;;;22.20;77.60;;;;;;4999644;28;20060;-74
2023/06/19 04:18:01;;;;;;;4.75;3.42;;;22.30;77.50;;;;;;4999001;28;20022;-74
2023/06/19 04:20:27;;;;;;;3.67;3.00;;;22.30;77.60;;;;;;5000181;28;20411;-73
2023/06/19 04:22:52;;;;;;;4.20;2.92;;;22.30;77.90;;;;;;4998168;28;20057;-75
2023/06/19 04:25:18;;;;;;;4.97;3.00;;;22.30;77.90;;;;;;5001431;28;20018;-74
2023/06/19 04:27:44;;;;;;;3.95;3.17;;;22.30;77.90;;;;;;5004655;28;20105;-74
2023/06/19 04:30:11;;;;;;;4.55;2.88;;;22.30;77.80;;;;;;5001973;28;20749;-74
2023/06/19 04:32:40;;;;;;;7.32;2.80;;;22.30;77.90;;;;;;5004391;28;20035;-75
2023/06/19 04:35:07;;;;;;;8.02;2.97;;;22.30;78.00;;;;;;5000993;28;20239;-74
2023/06/19 04:37:33;;;;;;;5.03;2.75;;;22.30;78.60;;;;;;5000604;28;20496;-75
2023/06/19 04:39:59;;;;;;;6.03;2.85;;;22.30;80.30;;;;;;5019831;28;20026;-75
2023/06/19 04:42:26;;;;;;;3.58;3.00;;;22.30;82.40;;;;;;5001980;28;20040;-72
2023/06/19 04:44:51;;;;;;;4.57;2.65;;;22.30;83.50;;;;;;5003886;28;20018;-74
2023/06/19 04:47:19;;;;;;;4.18;3.30;;;22.20;84.50;;;;;;4999143;28;20069;-74
2023/06/19 04:49:45;;;;;;;3.15;2.80;;;22.20;85.30;;;;;;5000237;28;20045;-75
2023/06/19 04:52:11;;;;;;;4.07;2.38;;;22.10;85.70;;;;;;5001075;28;20394;-75
2023/06/19 04:54:37;;;;;;;4.60;2.75;;;22.10;86.30;;;;;;5006155;28;20034;-75
2023/06/19 04:57:02;;;;;;;3.22;2.45;;;22.10;86.50;;;;;;5003144;28;20037;-74
2023/06/19 04:59:30;;;;;;;3.35;2.17;;;22.00;86.50;;;;;;5007244;28;20022;-71
2023/06/19 05:01:56;;;;;;;3.33;2.05;;;22.00;86.90;;;;;;5020278;28;20054;-70
2023/06/19 05:04:22;;;;;;;3.70;2.15;;;22.00;87.00;;;;;;5029393;28;20047;-71
2023/06/19 05:06:48;;;;;;;2.35;1.90;;;22.00;85.80;;;;;;4996519;28;20473;-71
2023/06/19 05:09:14;;;;;;;4.32;1.95;;;22.00;85.00;;;;;;5009032;28;20030;-71
2023/06/19 05:11:39;;;;;;;3.95;2.35;;;22.00;85.70;;;;;;5011040;28;20056;-71
2023/06/19 05:14:05;;;;;;;2.38;1.80;;;22.00;86.80;;;;;;5011382;28;20025;-71
2023/06/19 05:16:31;;;;;;;2.10;1.75;;;22.00;87.30;;;;;;5011839;28;20049;-71
2023/06/19 05:18:56;;;;;;;3.10;1.98;;;22.00;89.00;;;;;;5012346;28;20018;-71
2023/06/19 05:21:22;;;;;;;4.90;2.17;;;22.00;89.60;;;;;;5027808;28;20026;-70
2023/06/19 05:23:50;;;;;;;1.58;1.38;;;22.00;90.20;;;;;;5012423;28;20058;-71
2023/06/19 05:26:16;;;;;;;3.30;2.40;;;22.00;90.20;;;;;;5012222;28;20022;-71
2023/06/19 05:28:42;;;;;;;2.60;2.28;;;22.00;90.30;;;;;;5024077;28;20108;-76
2023/06/19 05:31:08;;;;;;;2.22;1.63;;;22.00;90.60;;;;;;5004483;28;20558;-76
2023/06/19 05:33:33;;;;;;;2.92;1.83;;;22.00;90.50;;;;;;5002938;28;20033;-73
2023/06/19 05:35:59;;;;;;;2.72;2.17;;;22.00;90.80;;;;;;4997706;28;20495;-72
2023/06/19 05:38:25;;;;;;;2.20;1.60;;;22.10;91.00;;;;;;5002202;28;20027;-71
2023/06/19 05:40:52;;;;;;;3.40;2.10;;;22.10;90.90;;;;;;4996062;28;20018;-71
2023/06/19 05:43:18;;;;;;;2.90;1.90;;;22.10;90.90;;;;;;4997584;28;20068;-71
2023/06/19 05:45:44;;;;;;;2.80;1.77;;;22.20;91.00;;;;;;4999617;28;20034;-72
2023/06/19 05:48:10;;;;;;;3.13;2.13;;;22.20;90.80;;;;;;5004946;28;20033;-72
2023/06/19 05:50:35;;;;;;;3.53;2.17;;;22.20;91.20;;;;;;5004138;28;20026;-71
2023/06/19 05:53:01;;;;;;;4.57;2.15;;;22.30;90.90;;;;;;4999731;28;20084;-72
2023/06/19 05:55:29;;;;;;;4.90;1.83;;;22.30;91.10;;;;;;5003825;28;20536;-75
2023/06/19 05:57:56;;;;;;;2.90;1.70;;;22.40;90.90;;;;;;5003660;28;20061;-75
2023/06/19 06:00:22;;;;;;;2.03;1.70;;;22.40;90.70;;;;;;5002136;28;20127;-74
2023/06/19 06:02:48;;;;;;;3.65;1.33;;;22.50;90.60;;;;;;5001406;28;20034;-75
2023/06/19 06:05:13;;;;;;;5.18;1.92;;;22.50;90.00;;;;;;5014296;28;20030;-75
2023/06/19 06:07:39;;;;;;;2.50;2.10;;;22.60;89.20;;;;;;5025334;28;20026;-74
2023/06/19 06:10:05;;;;;;;2.72;2.15;;;22.60;89.30;;;;;;5000349;28;20026;-75
2023/06/19 06:12:34;;;;;;;3.47;2.65;;;22.60;90.10;;;;;;5011841;28;20116;-77
2023/06/19 06:15:01;;;;;;;2.70;1.92;;;22.70;89.50;;;;;;5007835;28;20447;-75
2023/06/19 06:17:27;;;;;;;7.70;2.42;;;22.60;89.60;;;;;;5005484;28;20061;-75
2023/06/19 06:19:52;;;;;;;3.03;2.25;;;22.60;90.00;;;;;;5006539;28;20465;-76
2023/06/19 06:22:18;;;;;;;3.42;2.50;;;22.70;90.00;;;;;;5007462;28;20026;-75
2023/06/19 06:24:44;;;;;;;4.18;2.30;;;22.70;90.00;;;;;;5007644;28;20030;-75
2023/06/19 06:27:10;;;;;;;6.90;3.28;;;22.80;89.80;;;;;;5007848;28;20416;-75
2023/06/19 06:29:36;;;;;;;4.90;3.20;;;22.90;89.60;;;;;;5009214;28;20116;-74
2023/06/19 06:32:07;;;;;;;7.93;3.75;;;22.90;89.60;;;;;;5001612;28;20029;-73
2023/06/19 06:34:33;;;;;;;7.07;4.40;;;22.90;89.70;;;;;;5001910;28;20026;-75
2023/06/19 06:37:00;;;;;;;5.72;3.78;;;22.90;89.90;;;;;;5004783;28;20038;-75
2023/06/19 06:39:26;;;;;;;6.63;4.53;;;22.90;90.00;;;;;;5006977;28;20322;-74
2023/06/19 06:41:52;;;;;;;4.88;3.10;;;22.90;89.90;;;;;;5005701;28;20595;-74
2023/06/19 06:44:17;;;;;;;7.35;3.80;;;22.90;89.70;;;;;;5019589;28;20041;-75
2023/06/19 06:46:43;;;;;;;6.78;3.75;;;22.90;89.40;;;;;;5000901;28;20377;-75
2023/06/19 06:49:08;;;;;;;5.78;3.38;;;22.90;90.00;;;;;;5002263;28;20087;-73
2023/06/19 06:51:34;;;;;;;5.93;2.90;;;22.90;89.80;;;;;;5005598;28;20061;-75
2023/06/19 06:53:59;;;;;;;5.40;3.58;;;23.00;89.60;;;;;;5019878;28;20026;-76
2023/06/19 06:56:26;;;;;;;7.05;3.80;;;23.10;89.70;;;;;;5003894;28;20052;-75
2023/06/19 06:58:51;;;;;;;5.90;3.75;;;23.30;89.50;;;;;;5010998;28;20083;-75
2023/06/19 07:01:17;;;;;;;5.72;3.63;;;23.40;88.30;;;;;;5005554;28;20022;-75
2023/06/19 07:03:43;;;;;;;5.82;3.20;;;23.40;87.90;;;;;;5009667;28;20037;-75
2023/06/19 07:06:08;;;;;;;5.40;3.33;;;23.40;87.40;;;;;;5010840;28;20499;-75
2023/06/19 07:08:34;;;;;;;4.03;3.20;;;23.50;87.50;;;;;;5005256;28;20042;-75
2023/06/19 07:11:00;;;;;;;5.63;3.50;;;23.50;87.30;;;;;;5010580;28;20374;-75
2023/06/19 07:13:25;;;;;;;4.30;3.50;;;23.60;87.10;;;;;;5009753;28;20495;-75
2023/06/19 07:15:51;;;;;;;3.35;2.92;;;23.60;87.40;;;;;;5004152;28;20061;-74
2023/06/19 07:18:17;;;;;;;6.20;4.15;;;23.60;87.30;;;;;;5010093;28;20080;-76
2023/06/19 07:20:42;;;;;;;4.38;3.13;;;23.70;87.70;;;;;;5010742;28;20052;-75
2023/06/19 07:23:10;;;;;;;3.60;3.17;;;23.70;87.50;;;;;;5024577;28;20113;-75
2023/06/19 07:25:35;;;;;;;3.50;3.00;;;23.80;87.50;;;;;;5010653;28;20100;-74
2023/06/19 07:28:01;;;;;;;3.88;3.17;;;23.80;87.40;;;;;;5006112;28;20049;-75
2023/06/19 07:30:27;;;;;;;4.32;3.47;;;23.90;87.30;;;;;;5008590;28;20076;-75
2023/06/19 07:32:53;;;;;;;4.72;3.60;;;23.90;87.30;;;;;;5007139;28;20030;-74
2023/06/19 07:35:18;;;;;;;5.35;3.35;;;24.00;87.30;;;;;;5007891;28;20036;-75
2023/06/19 07:37:45;;;;;;;4.00;3.20;;;24.10;87.40;;;;;;5009006;28;20026;-75
2023/06/19 07:40:11;;;;;;;4.90;3.38;;;24.00;86.90;;;;;;5008710;28;20076;-75
2023/06/19 07:42:37;;;;;;;5.78;2.90;;;24.10;86.90;;;;;;5004366;28;20026;-75
2023/06/19 07:45:03;;;;;;;4.35;3.63;;;24.30;86.80;;;;;;5007582;28;20023;-75
2023/06/19 07:47:29;;;;;;;4.85;3.42;;;24.40;86.60;;;;;;5010759;28;20022;-77
2023/06/19 07:49:55;;;;;;;5.43;3.28;;;24.50;86.20;;;;;;5012544;28;20526;-75
2023/06/19 07:54:53;;;;;;;4.63;3.20;;;24.70;85.40;;;;;;5030713;28;20117;-75
2023/06/19 07:57:19;;;;;;;4.72;3.10;;;24.80;85.20;;;;;;5028433;28;20025;-74
2023/06/19 07:59:46;;;;;;;6.85;3.13;;;24.80;84.50;;;;;;5032780;28;20083;-76
2023/06/19 08:02:11;;;;;;;4.65;3.30;;;24.90;83.80;;;;;;5032986;28;20105;-75
2023/06/19 08:04:37;;;;;;;6.90;3.10;;;25.00;83.40;;;;;;5028700;28;20520;-74
2023/06/19 08:07:03;;;;;;;6.25;3.05;;;25.00;82.80;;;;;;5030305;28;20404;-77
2023/06/19 08:09:29;;;;;;;4.55;2.90;;;25.10;82.70;;;;;;5030198;28;20250;-76
2023/06/19 08:11:54;;;;;;;3.60;2.50;;;25.20;82.20;;;;;;5033530;28;20021;-74
2023/06/19 08:14:20;;;;;;;4.32;2.90;;;25.20;81.60;;;;;;5027381;28;20040;-74
2023/06/19 08:16:45;;;;;;;3.92;2.97;;;25.30;81.20;;;;;;5021746;28;20484;-75
2023/06/19 08:19:11;;;;;;;7.95;3.45;;;25.40;81.00;;;;;;5027191;28;20040;-74
2023/06/19 08:21:37;;;;;;;4.75;2.92;;;25.60;80.40;;;;;;5026683;28;20511;-74
2023/06/19 08:24:02;;;;;;;4.57;3.20;;;25.70;79.50;;;;;;5026192;28;20036;-74
2023/06/19 08:26:28;;;;;;;4.45;2.95;;;25.80;78.50;;;;;;5028352;28;20037;-74
2023/06/19 08:28:54;;;;;;;3.63;3.03;;;25.90;77.40;;;;;;5026767;28;20030;-74
2023/06/19 08:31:21;;;;;;;3.90;3.28;;;26.10;76.70;;;;;;5023549;28;20049;-74
2023/06/19 08:33:50;;;;;;;4.40;3.58;;;26.20;76.20;;;;;;5025697;28;20029;-75
2023/06/19 08:36:16;;;;;;;4.28;2.63;;;26.40;76.10;;;;;;5024148;28;20026;-75
2023/06/19 08:38:41;;;;;;;4.47;2.70;;;26.60;76.20;;;;;;5027217;28;20032;-75
2023/06/19 08:41:07;;;;;;;5.70;3.28;;;26.60;76.10;;;;;;5025366;28;20072;-76
2023/06/19 08:43:33;;;;;;;4.65;2.90;;;26.70;76.50;;;;;;5024436;28;20033;-76
2023/06/19 08:46:11;;;;;;;3.63;2.20;;;26.70;75.90;;;;;;5026019;28;20052;-75
2023/06/19 08:48:37;;;;;;;1.70;1.60;;;26.80;72.50;;;;;;5025141;28;20026;-75
2023/06/19 08:51:04;;;;;;;4.10;1.80;;;26.80;70.70;;;;;;5025053;28;20053;-75
2023/06/19 08:53:34;;;;;;;4.47;2.00;;;26.80;70.70;;;;;;5021847;28;20054;-75
2023/06/19 08:56:00;;;;;;;4.43;2.30;;;26.80;70.50;;;;;;5012895;28;20052;-75
2023/06/19 08:58:26;;;;;;;7.10;2.38;;;26.80;70.30;;;;;;5027677;28;20053;-75
2023/06/19 09:00:51;;;;;;;6.85;2.60;;;26.80;70.60;;;;;;5003215;28;20045;-76
2023/06/19 09:03:23;;;;;;;4.53;2.33;;;26.70;70.70;;;;;;5025609;28;20029;-74
2023/06/19 09:05:50;;;;;;;3.80;2.15;;;26.80;71.10;;;;;;5024208;28;20029;-75
2023/06/19 09:08:17;;;;;;;4.70;2.92;;;26.80;71.30;;;;;;5022124;28;20087;-75
2023/06/19 09:10:43;;;;;;;3.72;2.70;;;26.70;71.70;;;;;;5007257;28;20483;-74
2023/06/19 09:13:09;;;;;;;5.22;3.10;;;26.80;72.10;;;;;;5003943;28;20029;-75
2023/06/19 09:15:36;;;;;;;4.32;2.92;;;26.70;72.70;;;;;;5019621;28;20535;-76
2023/06/19 09:18:05;;;;;;;3.33;2.42;;;26.70;73.00;;;;;;5021700;28;20362;-74
2023/06/19 09:20:32;;;;;;;2.95;2.65;;;26.80;73.10;;;;;;5046388;28;20027;-73
2023/06/19 09:22:58;;;;;;;3.05;2.40;;;26.80;72.40;;;;;;5044896;28;20018;-73
2023/06/19 09:25:26;;;;;;;3.13;2.67;;;26.80;71.80;;;;;;5027075;28;20021;-73
2023/06/19 09:27:54;;;;;;;5.35;2.92;;;26.80;71.80;;;;;;5038890;28;20025;-73
2023/06/19 09:30:20;;;;;;;2.65;2.30;;;26.90;71.80;;;;;;5028391;28;20078;-77
2023/06/19 09:32:46;;;;;;;3.28;2.50;;;27.00;71.50;;;;;;5027654;28;20120;-76
2023/06/19 09:35:11;;;;;;;7.20;2.70;;;27.00;71.10;;;;;;5025783;28;20116;-77
2023/06/19 09:37:40;;;;;;;2.85;2.38;;;27.10;71.30;;;;;;5005681;28;20033;-77
2023/06/19 09:40:13;;;;;;;5.38;2.70;;;27.20;71.20;;;;;;5028129;28;20021;-76
2023/06/19 09:42:40;;;;;;;3.85;2.47;;;27.30;70.60;;;;;;5010573;28;20026;-76
2023/06/19 09:45:08;;;;;;;2.20;1.95;;;27.40;70.40;;;;;;5023523;28;21247;-76
2023/06/19 09:47:42;;;;;;;2.53;2.13;;;27.40;69.70;;;;;;5022715;28;20017;-74
2023/06/19 09:50:10;;;;;;;3.08;2.42;;;27.40;69.60;;;;;;5028672;28;20029;-74
2023/06/19 09:52:36;;;;;;;3.53;2.10;;;27.50;69.30;;;;;;5024985;28;20032;-74
2023/06/19 09:55:04;;;;;;;4.97;2.35;;;27.50;67.90;;;;;;5026113;28;20029;-74
2023/06/19 09:57:31;;;;;;;6.85;2.38;;;27.60;67.90;;;;;;5022862;28;20072;-75
2023/06/19 09:59:59;;;;;;;2.67;2.33;;;27.70;67.80;;;;;;5001004;28;20022;-75
2023/06/19 10:02:27;;;;;;;2.70;2.13;;;27.80;67.80;;;;;;5022854;28;20022;-74
2023/06/19 10:04:55;;;;;;;3.15;2.88;;;27.80;67.00;;;;;;5017779;28;20033;-76
2023/06/19 10:07:23;;;;;;;5.55;2.97;;;27.90;66.00;;;;;;5027635;28;20446;-74
2023/06/19 10:09:58;;;;;;;2.85;2.53;;;27.90;65.50;;;;;;5009679;28;20029;-74
2023/06/19 10:12:37;;;;;;;3.13;2.33;;;27.90;65.20;;;;;;5032177;28;20056;-75
2023/06/19 10:15:19;;;;;;;2.95;2.05;;;27.90;65.70;;;;;;5008984;28;20026;-74
2023/06/19 10:17:48;;;;;;;3.35;2.53;;;28.00;66.00;;;;;;5029168;28;20080;-75
2023/06/19 10:20:37;;;;;;;6.55;2.88;;;28.00;65.70;;;;;;5024312;28;20034;-75
2023/06/19 10:23:35;;;;;;;3.40;2.30;;;27.90;65.30;;;;;;5022571;28;20022;-75
2023/06/19 10:26:01;;;;;;;3.72;2.17;;;28.00;65.20;;;;;;5010493;28;20052;-74
2023/06/19 10:28:31;;;;;;;3.13;2.72;;;27.90;65.20;;;;;;5009288;28;20037;-76
2023/06/19 10:31:02;;;;;;;3.55;2.40;;;28.00;65.60;;;;;;5001498;28;20482;-75
2023/06/19 10:33:33;;;;;;;2.30;2.10;;;28.00;65.70;;;;;;5022028;28;20041;-74
2023/06/19 10:36:02;;;;;;;2.80;2.38;;;28.00;65.30;;;;;;5017369;28;20036;-74
2023/06/19 10:38:28;;;;;;;4.25;2.50;;;28.00;65.20;;;;;;5028786;28;20480;-74
2023/06/19 10:40:54;;;;;;;3.97;2.50;;;28.00;65.30;;;;;;5022738;28;20030;-75
2023/06/19 10:43:31;;;;;;;4.28;3.00;;;28.00;65.40;;;;;;5023117;28;20495;-75
2023/06/19 10:45:58;;;;;;;3.72;2.22;;;27.90;65.30;;;;;;5025669;28;20434;-75
2023/06/19 10:48:24;;;;;;;3.40;2.40;;;28.00;65.50;;;;;;5019690;28;20026;-74
2023/06/19 10:50:50;;;;;;;4.18;2.55;;;28.00;65.50;;;;;;5019997;28;20037;-74
2023/06/19 10:53:27;;;;;;;3.80;2.55;;;28.10;65.20;;;;;;5009745;28;20033;-74
2023/06/19 10:55:57;;;;;;;3.63;2.55;;;28.00;65.20;;;;;;5018957;28;20025;-74
2023/06/19 10:58:23;;;;;;;2.50;2.30;;;27.90;65.50;;;;;;5013393;28;20032;-75
2023/06/19 11:00:49;;;;;;;3.63;2.90;;;28.00;65.60;;;;;;5013247;28;20030;-74
2023/06/19 11:03:15;;;;;;;3.17;2.85;;;28.00;65.60;;;;;;5008570;28;20068;-74
2023/06/19 11:05:44;;;;;;;2.78;2.45;;;28.00;65.40;;;;;;5026459;28;20076;-74
2023/06/19 11:08:10;;;;;;;3.65;2.95;;;28.10;65.10;;;;;;5031772;28;20033;-75
2023/06/19 11:10:36;;;;;;;3.72;2.42;;;28.10;64.90;;;;;;5006541;28;20420;-75
2023/06/19 11:13:02;;;;;;;3.38;3.08;;;28.20;65.20;;;;;;5022288;28;20104;-75
2023/06/19 11:15:32;;;;;;;2.92;2.63;;;28.20;64.20;;;;;;5022455;28;20487;-75
2023/06/19 11:17:59;;;;;;;4.47;2.63;;;28.20;64.20;;;;;;5025984;28;20040;-74
2023/06/19 11:20:28;;;;;;;3.47;2.47;;;28.30;64.10;;;;;;5025017;28;20030;-75
2023/06/19 11:23:01;;;;;;;4.47;2.53;;;28.40;63.70;;;;;;5009124;28;20049;-75
2023/06/19 11:25:40;;;;;;;3.58;2.70;;;28.50;64.10;;;;;;5028504;28;20443;-77
2023/06/19 11:28:17;;;;;;;3.63;2.90;;;28.60;63.90;;;;;;5028139;28;20403;-74
2023/06/19 11:30:43;;;;;;;2.70;2.50;;;28.60;63.60;;;;;;5027374;28;20018;-75
2023/06/19 11:33:22;;;;;;;2.65;2.13;;;28.70;63.20;;;;;;5019415;28;20021;-74
2023/06/19 11:35:53;;;;;;;5.35;2.35;;;28.70;63.10;;;;;;5011796;28;20041;-75
2023/06/19 11:38:23;;;;;;;3.80;2.88;;;28.70;63.30;;;;;;5027443;28;20032;-75
2023/06/19 11:40:49;;;;;;;3.80;2.63;;;28.70;63.60;;;;;;5029093;28;20534;-72
2023/06/19 11:43:29;;;;;;;2.80;2.60;;;28.60;63.40;;;;;;5023976;28;20040;-70
2023/06/19 11:46:03;;;;;;;3.25;2.50;;;28.60;64.00;;;;;;5024118;28;20029;-71
2023/06/19 11:48:29;;;;;;;4.05;2.75;;;28.60;63.70;;;;;;5021170;28;20033;-71
2023/06/19 11:50:55;;;;;;;3.22;2.75;;;28.70;63.40;;;;;;5002574;28;20033;-70
2023/06/19 11:53:22;;;;;;;4.07;2.92;;;28.70;63.10;;;;;;5003085;28;20511;-71
2023/06/19 11:55:48;;;;;;;2.75;2.50;;;28.70;62.20;;;;;;5023093;28;20025;-70
2023/06/19 11:58:15;;;;;;;3.05;2.55;;;28.70;62.50;;;;;;5023453;28;20021;-71
2023/06/19 12:00:41;;;;;;;3.90;2.55;;;28.70;62.40;;;;;;5024318;28;20032;-71
2023/06/19 12:03:07;;;;;;;3.05;2.67;;;28.70;61.90;;;;;;5023776;28;20024;-71
2023/06/19 12:05:33;;;;;;;3.25;2.67;;;28.80;61.10;;;;;;5027396;28;20038;-72
2023/06/19 12:08:02;;;;;;;6.00;2.60;;;28.80;61.20;;;;;;5021647;28;20053;-71
2023/06/19 12:10:28;;;;;;;3.28;2.65;;;28.90;61.00;;;;;;5022977;28;20071;-71
2023/06/19 12:12:53;;;;;;;3.78;2.22;;;28.90;61.20;;;;;;5021179;28;20048;-74
2023/06/19 12:15:19;;;;;;;2.78;2.33;;;28.90;60.70;;;;;;5027759;28;20112;-77
2023/06/19 12:17:46;;;;;;;2.92;2.08;;;28.90;60.40;;;;;;5024266;28;20026;-75
2023/06/19 12:20:13;;;;;;;2.85;2.50;;;29.00;60.50;;;;;;5027065;28;20021;-79
2023/06/19 12:22:39;;;;;;;2.42;2.20;;;29.10;60.50;;;;;;5026765;28;20124;-77
2023/06/19 12:25:05;;;;;;;3.20;2.60;;;29.10;60.50;;;;;;5008492;28;20041;-77
2023/06/19 12:27:31;;;;;;;2.75;2.45;;;29.20;60.40;;;;;;5025273;28;20201;-76
2023/06/19 12:29:57;;;;;;;3.15;2.50;;;29.30;60.30;;;;;;5026845;28;20366;-76
2023/06/19 12:32:23;;;;;;;3.85;2.47;;;29.40;59.90;;;;;;5026099;28;20018;-75
2023/06/19 12:34:49;;;;;;;2.42;2.22;;;29.40;59.80;;;;;;5030765;28;20032;-75
2023/06/19 12:37:17;;;;;;;2.60;2.33;;;29.40;59.00;;;;;;5024952;28;20100;-75
2023/06/19 12:39:43;;;;;;;8.85;2.65;;;29.40;58.70;;;;;;5025234;28;20071;-76
2023/06/19 12:42:11;;;;;;;3.72;2.63;;;29.40;58.90;;;;;;5024488;28;20476;-76
2023/06/19 12:44:38;;;;;;;2.65;2.30;;;29.40;59.20;;;;;;5024748;28;20107;-75
2023/06/19 12:47:04;;;;;;;2.70;2.28;;;29.40;59.10;;;;;;5021328;28;20480;-76
2023/06/19 12:49:30;;;;;;;2.63;2.42;;;29.40;59.60;;;;;;5026473;28;20039;-80